Time;durP1;ratioP1;P1;durP2;ratioP2;P2;SDS_P1;SDS_P2;PMS_P1;PMS_P2;Temp;Humidity;BMP_temperature;BMP_pressure;BME280_temperature;BME280_humidity;BME280_pressure;Samples;Min_cycle;Max_cycle;Signal;HPM_P1;HPM_P2
2021/09/21 00:00:49;;;;;;;3.60;2.70;;;16.90;91.90;;;;;;5014116;28;20644;-77
2021/09/21 00:03:16;;;;;;;3.13;2.83;;;16.90;91.90;;;;;;5014100;28;20527;-77
2021/09/21 00:05:42;;;;;;;3.83;3.23;;;16.90;91.80;;;;;;4993439;28;20569;-77
2021/09/21 00:08:07;;;;;;;4.90;2.80;;;16.80;91.80;;;;;;4985494;28;20575;-77
2021/09/21 00:10:34;;;;;;;3.20;2.80;;;16.90;91.90;;;;;;5008038;28;20552;-77
2021/09/21 00:13:02;;;;;;;3.27;2.97;;;16.80;91.80;;;;;;5004130;28;20188;-76
2021/09/21 00:15:28;;;;;;;2.87;2.57;;;16.80;92.00;;;;;;4963732;28;20939;-76
2021/09/21 00:17:53;;;;;;;2.60;2.40;;;16.80;92.10;;;;;;4999370;28;20598;-77
2021/09/21 00:20:19;;;;;;;3.30;3.00;;;16.80;92.10;;;;;;5022907;22;20278;-74
2021/09/21 00:22:45;;;;;;;2.73;2.33;;;16.80;92.10;;;;;;5018794;28;20581;-74
2021/09/21 00:25:13;;;;;;;3.20;2.67;;;16.80;91.90;;;;;;5013592;28;20654;-74
2021/09/21 00:27:40;;;;;;;4.60;2.87;;;16.80;91.90;;;;;;5012777;28;20631;-76
2021/09/21 00:30:09;;;;;;;2.90;2.53;;;16.80;92.00;;;;;;4979102;28;20572;-74
2021/09/21 00:32:36;;;;;;;2.53;2.23;;;16.80;92.00;;;;;;5013343;28;20568;-74
2021/09/21 00:35:01;;;;;;;3.47;2.60;;;16.80;92.00;;;;;;5013609;28;20611;-75
2021/09/21 00:37:27;;;;;;;3.80;2.70;;;16.80;91.90;;;;;;5013315;28;20621;-75
2021/09/21 00:39:53;;;;;;;3.40;3.10;;;16.80;92.10;;;;;;4995718;28;20500;-75
2021/09/21 00:42:25;;;;;;;3.77;2.57;;;16.80;92.20;;;;;;5013260;28;20177;-75
2021/09/21 00:44:58;;;;;;;4.53;2.53;;;16.70;92.20;;;;;;5013181;28;20561;-75
2021/09/21 00:47:25;;;;;;;3.77;2.57;;;16.80;92.30;;;;;;5013039;28;20570;-75
2021/09/21 00:49:50;;;;;;;2.93;2.50;;;16.80;92.20;;;;;;4995284;28;20574;-75
2021/09/21 00:52:16;;;;;;;2.70;2.00;;;16.80;92.40;;;;;;5013060;28;20748;-76
2021/09/21 00:54:42;;;;;;;4.53;2.67;;;16.80;92.30;;;;;;5012563;28;20166;-76
2021/09/21 00:57:10;;;;;;;2.57;2.33;;;16.80;92.30;;;;;;4995440;28;20586;-75
2021/09/21 00:59:36;;;;;;;4.13;2.90;;;16.80;92.40;;;;;;5011385;28;20562;-75
2021/09/21 01:02:01;;;;;;;3.10;2.83;;;16.80;92.60;;;;;;5012823;28;20593;-75
2021/09/21 01:04:27;;;;;;;3.27;2.60;;;16.80;92.60;;;;;;4995797;28;20177;-74
2021/09/21 01:06:53;;;;;;;3.17;2.57;;;16.80;92.70;;;;;;5012863;28;20582;-75
2021/09/21 01:09:21;;;;;;;3.10;2.63;;;16.80;92.90;;;;;;4994947;28;20198;-75
2021/09/21 01:11:53;;;;;;;3.00;2.50;;;16.90;93.10;;;;;;5012773;28;20190;-75
2021/09/21 01:14:20;;;;;;;3.20;2.60;;;16.90;93.10;;;;;;4994939;28;20620;-75
2021/09/21 01:16:46;;;;;;;3.13;2.30;;;16.90;93.10;;;;;;5012691;28;20620;-75
2021/09/21 01:19:14;;;;;;;3.87;3.57;;;16.90;93.30;;;;;;5010948;28;20601;-75
2021/09/21 01:21:41;;;;;;;2.70;2.47;;;16.90;93.30;;;;;;5012611;28;20619;-75
2021/09/21 01:24:07;;;;;;;3.43;2.37;;;16.90;93.40;;;;;;4978887;28;20570;-75
2021/09/21 01:26:33;;;;;;;2.70;2.50;;;16.90;93.40;;;;;;5012223;28;20921;-75
2021/09/21 01:28:59;;;;;;;2.87;2.67;;;16.90;93.50;;;;;;4994442;28;20635;-75
2021/09/21 01:31:25;;;;;;;3.47;3.17;;;17.00;93.60;;;;;;5012126;28;20628;-75
2021/09/21 01:33:52;;;;;;;5.00;3.03;;;16.90;93.60;;;;;;5012419;28;20257;-75
2021/09/21 01:36:20;;;;;;;3.27;2.67;;;17.00;93.90;;;;;;5012347;28;20202;-75
2021/09/21 01:38:46;;;;;;;3.63;3.10;;;16.90;93.90;;;;;;5012088;28;20573;-75
2021/09/21 01:41:12;;;;;;;3.57;3.27;;;16.90;94.00;;;;;;5012143;28;20655;-75
2021/09/21 01:43:42;;;;;;;2.80;2.60;;;16.90;94.20;;;;;;5012016;28;20583;-75
2021/09/21 01:46:11;;;;;;;2.70;2.50;;;16.90;94.30;;;;;;4994395;28;21150;-75
2021/09/21 01:48:37;;;;;;;3.37;3.07;;;16.90;94.40;;;;;;4994434;28;20577;-75
2021/09/21 01:51:09;;;;;;;3.40;3.10;;;16.90;94.40;;;;;;4994419;28;20628;-75
2021/09/21 01:59:14;;;;;;;4.47;2.80;;;16.90;94.50;;;;;;5011707;28;20656;-75
2021/09/21 02:01:40;;;;;;;4.20;2.93;;;16.90;94.50;;;;;;5010671;28;20684;-75
2021/09/21 02:04:08;;;;;;;2.60;2.40;;;16.90;94.50;;;;;;5011838;28;20167;-75
2021/09/21 02:06:39;;;;;;;3.23;2.50;;;16.90;94.60;;;;;;5010837;28;20548;-75
2021/09/21 02:09:11;;;;;;;2.83;2.33;;;16.90;94.80;;;;;;4994021;28;20566;-75
2021/09/21 02:11:38;;;;;;;3.10;2.80;;;16.90;94.70;;;;;;5011695;28;20593;-75
2021/09/21 02:14:07;;;;;;;3.23;2.53;;;16.90;94.70;;;;;;4994344;28;20592;-75
2021/09/21 02:16:33;;;;;;;3.00;2.67;;;16.90;94.70;;;;;;5011711;28;20609;-75
2021/09/21 02:18:59;;;;;;;2.50;2.30;;;16.90;94.70;;;;;;5011361;28;20577;-75
2021/09/21 02:21:25;;;;;;;3.53;3.20;;;16.80;94.60;;;;;;5011628;28;20201;-75
2021/09/21 02:23:53;;;;;;;2.80;2.60;;;16.80;94.80;;;;;;4994141;28;20617;-75
2021/09/21 02:26:19;;;;;;;2.97;2.33;;;16.80;94.90;;;;;;4994164;28;20576;-75
2021/09/21 02:28:44;;;;;;;3.83;2.80;;;16.80;95.00;;;;;;4993750;28;21104;-75
2021/09/21 02:31:10;;;;;;;3.17;2.67;;;16.80;95.00;;;;;;5011735;28;20240;-75
2021/09/21 02:33:38;;;;;;;2.70;2.50;;;16.80;95.00;;;;;;4978101;28;20573;-75
2021/09/21 02:36:05;;;;;;;2.90;2.67;;;16.80;94.90;;;;;;5011628;28;20735;-75
2021/09/21 02:38:36;;;;;;;4.17;3.00;;;16.80;94.90;;;;;;5011136;28;20661;-75
2021/09/21 02:41:03;;;;;;;2.30;2.10;;;16.80;95.00;;;;;;5011403;28;20601;-75
2021/09/21 02:43:29;;;;;;;2.97;2.53;;;16.70;95.00;;;;;;5011554;28;20574;-75
2021/09/21 02:45:55;;;;;;;3.33;2.73;;;16.70;95.10;;;;;;4993849;28;20587;-75
2021/09/21 02:48:21;;;;;;;3.00;2.33;;;16.70;95.20;;;;;;4993483;28;20619;-75
2021/09/21 02:50:47;;;;;;;3.00;2.80;;;16.70;95.20;;;;;;5011351;28;20601;-75
2021/09/21 02:53:17;;;;;;;4.33;3.33;;;16.70;95.30;;;;;;5011470;28;20175;-75
2021/09/21 02:55:43;;;;;;;3.33;3.03;;;16.70;95.50;;;;;;4977589;28;20256;-75
2021/09/21 02:58:10;;;;;;;4.30;3.57;;;16.60;95.50;;;;;;4993458;28;20576;-75
2021/09/21 03:00:36;;;;;;;2.80;2.60;;;16.70;95.70;;;;;;4993657;28;20759;-75
2021/09/21 03:03:03;;;;;;;2.70;2.17;;;16.70;96.10;;;;;;4993745;28;20676;-75
2021/09/21 03:05:34;;;;;;;3.77;3.37;;;16.70;95.70;;;;;;4993661;28;20531;-75
2021/09/21 03:08:12;;;;;;;4.33;2.57;;;16.70;95.80;;;;;;4993622;28;20565;-75
2021/09/21 03:13:25;;;;;;;3.57;2.90;;;16.60;95.90;;;;;;5011203;28;20683;-75
2021/09/21 03:18:36;;;;;;;4.27;2.10;;;16.60;95.90;;;;;;5013504;28;20593;-75
2021/09/21 03:21:01;;;;;;;3.43;2.73;;;16.60;95.90;;;;;;5014663;28;20647;-75
2021/09/21 03:23:27;;;;;;;2.80;2.50;;;16.60;96.00;;;;;;4980897;28;20248;-75
2021/09/21 03:25:53;;;;;;;2.20;2.00;;;16.50;96.10;;;;;;5014841;28;20580;-75
2021/09/21 03:28:19;;;;;;;2.97;2.57;;;16.60;96.10;;;;;;4996922;28;21124;-75
2021/09/21 03:30:45;;;;;;;2.70;2.30;;;16.60;96.20;;;;;;5014720;28;20255;-75
2021/09/21 03:33:11;;;;;;;3.90;2.80;;;16.50;96.20;;;;;;5014643;28;20569;-75
2021/09/21 03:35:37;;;;;;;2.20;1.87;;;16.50;96.20;;;;;;5014538;28;20617;-75
2021/09/21 03:38:03;;;;;;;2.30;2.10;;;16.50;96.10;;;;;;5013763;28;20612;-75
2021/09/21 03:40:30;;;;;;;2.40;1.43;;;16.50;96.20;;;;;;5014342;28;20945;-75
2021/09/21 03:42:55;;;;;;;2.50;2.23;;;16.40;96.10;;;;;;5014309;28;20655;-75
2021/09/21 03:45:21;;;;;;;2.33;2.10;;;16.50;96.20;;;;;;5014586;28;20558;-75
2021/09/21 03:47:47;;;;;;;2.60;2.07;;;16.40;96.30;;;;;;5014398;28;20226;-75
2021/09/21 03:50:13;;;;;;;3.40;2.60;;;16.40;96.30;;;;;;5013867;28;20692;-75
2021/09/21 03:52:39;;;;;;;4.37;2.50;;;16.40;96.30;;;;;;5013164;28;20652;-75
2021/09/21 03:55:05;;;;;;;3.80;2.53;;;16.40;96.40;;;;;;5014385;28;20632;-75
2021/09/21 03:57:31;;;;;;;2.50;2.27;;;16.40;96.40;;;;;;4996660;28;20197;-75
2021/09/21 03:59:57;;;;;;;2.97;2.03;;;16.30;96.20;;;;;;5013662;28;21196;-75
2021/09/21 04:02:22;;;;;;;2.97;2.13;;;16.20;96.20;;;;;;5014163;28;20162;-75
2021/09/21 04:04:48;;;;;;;2.67;1.87;;;16.20;96.20;;;;;;5013931;28;20576;-75
2021/09/21 04:07:14;;;;;;;2.60;2.00;;;16.20;96.20;;;;;;4996531;28;20201;-75
2021/09/21 04:09:40;;;;;;;2.83;2.20;;;16.10;96.30;;;;;;4995929;28;20174;-75
2021/09/21 04:12:06;;;;;;;3.13;2.30;;;16.10;96.40;;;;;;5013995;28;20682;-75
2021/09/21 04:14:33;;;;;;;2.60;2.00;;;16.10;96.50;;;;;;4996327;28;20589;-75
2021/09/21 04:16:59;;;;;;;3.07;2.43;;;16.00;96.60;;;;;;5013749;28;20628;-75
2021/09/21 04:19:25;;;;;;;2.73;2.07;;;16.00;96.80;;;;;;5013234;28;20565;-76
2021/09/21 04:21:51;;;;;;;2.23;1.97;;;16.00;96.70;;;;;;4996230;28;20763;-76
2021/09/21 04:24:17;;;;;;;2.30;1.97;;;16.00;96.90;;;;;;5013406;28;20574;-75
2021/09/21 04:26:42;;;;;;;2.40;2.20;;;16.00;96.80;;;;;;5013592;28;20568;-75
2021/09/21 04:29:10;;;;;;;3.37;1.90;;;16.00;96.90;;;;;;5012486;28;20668;-75
2021/09/21 04:31:40;;;;;;;2.33;2.00;;;16.10;96.90;;;;;;5013555;28;20198;-75
2021/09/21 04:34:06;;;;;;;2.30;2.10;;;16.10;97.00;;;;;;5013620;28;20566;-76
2021/09/21 04:36:31;;;;;;;3.30;1.90;;;16.10;97.00;;;;;;5013178;28;20719;-76
2021/09/21 04:38:57;;;;;;;3.73;2.00;;;16.10;97.00;;;;;;5013192;28;20171;-76
2021/09/21 04:41:24;;;;;;;2.10;1.80;;;16.10;97.10;;;;;;5012827;28;20268;-75
2021/09/21 04:43:50;;;;;;;3.40;2.10;;;16.10;97.00;;;;;;5013432;28;20705;-75
2021/09/21 04:46:16;;;;;;;4.47;2.20;;;16.10;97.00;;;;;;4995094;28;20585;-75
2021/09/21 04:48:42;;;;;;;2.13;1.70;;;16.10;97.10;;;;;;5011278;28;21302;-75
2021/09/21 04:51:08;;;;;;;2.30;1.90;;;16.10;97.10;;;;;;4993450;28;20608;-75
2021/09/21 04:53:34;;;;;;;2.83;2.13;;;16.10;97.00;;;;;;5010948;28;20573;-75
2021/09/21 04:56:00;;;;;;;2.47;2.20;;;16.10;96.90;;;;;;4977334;28;20288;-75
2021/09/21 04:58:26;;;;;;;2.70;2.30;;;16.10;97.00;;;;;;5010910;28;20573;-75
2021/09/21 05:00:53;;;;;;;2.33;1.80;;;16.10;97.10;;;;;;5012332;28;20948;-75
2021/09/21 05:03:19;;;;;;;3.17;2.07;;;16.10;97.10;;;;;;5012861;28;20574;-76
2021/09/21 05:05:44;;;;;;;3.33;2.10;;;16.10;97.40;;;;;;4979227;28;20635;-76
2021/09/21 05:08:10;;;;;;;2.27;1.60;;;16.00;97.00;;;;;;5012840;28;20193;-75
2021/09/21 05:10:36;;;;;;;2.57;1.93;;;16.00;97.00;;;;;;5012808;28;20194;-76
2021/09/21 05:13:02;;;;;;;3.33;2.00;;;16.00;97.00;;;;;;4993957;28;20182;-76
2021/09/21 05:15:27;;;;;;;2.93;2.10;;;16.00;97.00;;;;;;5012326;28;20539;-76
2021/09/21 05:17:53;;;;;;;3.40;2.10;;;15.90;96.90;;;;;;5011659;28;20549;-76
2021/09/21 05:20:19;;;;;;;2.83;2.35;;;15.90;96.90;;;;;;5012241;28;20209;-75
2021/09/21 05:22:50;;;;;;;2.90;1.87;;;15.90;97.00;;;;;;5012625;28;20697;-76
2021/09/21 05:25:16;;;;;;;3.23;2.10;;;15.90;97.00;;;;;;5012651;28;20185;-76
2021/09/21 05:27:42;;;;;;;3.50;2.27;;;15.90;96.90;;;;;;5012521;28;20581;-75
2021/09/21 05:30:09;;;;;;;4.30;1.93;;;15.90;97.30;;;;;;5012761;28;20194;-75
2021/09/21 05:32:35;;;;;;;2.90;1.73;;;15.90;96.90;;;;;;5013050;28;20170;-75
2021/09/21 05:35:01;;;;;;;4.03;2.17;;;15.90;96.80;;;;;;4995193;28;20913;-76
2021/09/21 05:37:28;;;;;;;2.80;2.30;;;15.90;96.80;;;;;;5012170;28;20205;-76
2021/09/21 05:39:53;;;;;;;7.03;3.30;;;15.80;96.60;;;;;;5011859;28;20198;-75
2021/09/21 05:42:19;;;;;;;3.17;2.40;;;15.80;96.40;;;;;;5012464;28;20598;-76
2021/09/21 05:44:45;;;;;;;2.47;2.17;;;15.70;96.20;;;;;;5012395;28;20887;-76
2021/09/21 05:47:12;;;;;;;3.53;2.17;;;15.60;96.10;;;;;;5011969;28;20565;-76
2021/09/21 05:49:39;;;;;;;2.80;2.20;;;15.50;96.20;;;;;;5011843;28;20182;-76
2021/09/21 05:52:05;;;;;;;3.80;1.85;;;15.50;96.30;;;;;;5011116;28;20220;-75
2021/09/21 05:54:31;;;;;;;2.42;1.73;;;15.50;96.30;;;;;;5011864;28;20531;-76
2021/09/21 05:56:57;;;;;;;2.38;1.75;;;15.40;96.20;;;;;;5011544;28;20194;-75
2021/09/21 05:59:23;;;;;;;3.50;1.83;;;15.40;96.20;;;;;;4994120;28;20162;-75
2021/09/21 06:01:48;;;;;;;3.03;2.00;;;15.30;96.20;;;;;;5015046;28;20185;-75
2021/09/21 06:04:14;;;;;;;2.30;1.70;;;15.30;96.20;;;;;;4994064;28;20175;-75
2021/09/21 06:06:40;;;;;;;2.80;2.03;;;15.30;96.20;;;;;;4994435;28;20201;-75
2021/09/21 06:09:06;;;;;;;2.33;1.50;;;15.20;96.20;;;;;;5011423;28;20205;-75
2021/09/21 06:11:33;;;;;;;2.90;1.73;;;15.20;96.10;;;;;;4994464;28;20198;-75
2021/09/21 06:14:01;;;;;;;3.10;1.90;;;15.10;96.00;;;;;;5011631;28;20588;-76
2021/09/21 06:16:27;;;;;;;3.08;2.40;;;15.10;96.00;;;;;;4993756;28;20205;-75
2021/09/21 06:18:53;;;;;;;2.75;1.90;;;15.10;96.30;;;;;;5011427;28;20175;-75
2021/09/21 06:21:19;;;;;;;2.15;1.60;;;15.10;96.40;;;;;;4993843;28;20281;-75
2021/09/21 06:23:45;;;;;;;3.43;1.90;;;15.10;96.40;;;;;;5011592;28;20258;-76
2021/09/21 06:26:11;;;;;;;2.50;1.87;;;15.10;96.50;;;;;;4994422;28;20571;-75
2021/09/21 06:28:36;;;;;;;3.47;2.83;;;15.10;96.40;;;;;;5011271;28;20581;-75
2021/09/21 06:31:04;;;;;;;3.13;1.73;;;15.10;96.30;;;;;;4993794;28;20787;-75
2021/09/21 06:33:30;;;;;;;2.53;1.60;;;15.10;96.30;;;;;;4993905;28;20182;-75
2021/09/21 06:35:55;;;;;;;1.97;1.73;;;15.10;96.20;;;;;;5010478;28;20206;-75
2021/09/21 06:38:21;;;;;;;2.53;1.57;;;15.10;96.10;;;;;;5016399;28;20685;-75
2021/09/21 06:40:47;;;;;;;2.20;1.90;;;15.20;96.30;;;;;;4994204;28;20201;-75
2021/09/21 06:43:13;;;;;;;1.87;1.40;;;15.30;96.20;;;;;;5019308;28;20174;-75
2021/09/21 06:45:38;;;;;;;2.60;2.03;;;15.30;96.40;;;;;;5012719;28;20171;-76
2021/09/21 06:48:04;;;;;;;3.80;2.00;;;15.40;96.50;;;;;;4980032;28;20174;-75
2021/09/21 06:50:30;;;;;;;6.80;2.40;;;15.50;96.60;;;;;;5010739;28;20198;-75
2021/09/21 06:52:56;;;;;;;2.67;1.80;;;15.50;96.40;;;;;;5012268;28;20573;-74
2021/09/21 06:55:22;;;;;;;2.50;1.73;;;15.60;96.70;;;;;;4997668;28;20167;-75
2021/09/21 06:57:50;;;;;;;2.20;1.60;;;15.70;96.70;;;;;;4981266;28;20248;-74
2021/09/21 07:00:16;;;;;;;2.70;1.93;;;15.90;96.70;;;;;;5013387;28;20566;-73
2021/09/21 07:02:46;;;;;;;2.20;1.83;;;16.00;96.60;;;;;;5013956;28;20568;-74
2021/09/21 07:05:13;;;;;;;3.00;1.30;;;16.10;96.20;;;;;;5015166;28;21147;-73
2021/09/21 07:07:50;;;;;;;3.93;1.40;;;16.30;96.10;;;;;;5013701;28;20573;-73
2021/09/21 07:10:17;;;;;;;2.60;1.60;;;16.40;96.20;;;;;;5013598;28;20229;-73
2021/09/21 07:12:43;;;;;;;2.33;1.43;;;16.60;96.40;;;;;;5014779;28;20625;-72
2021/09/21 07:15:11;;;;;;;5.40;1.73;;;16.80;96.20;;;;;;5013705;28;20601;-73
2021/09/21 07:17:36;;;;;;;2.70;1.50;;;17.10;96.30;;;;;;5014524;28;20620;-73
2021/09/21 07:20:04;;;;;;;2.07;1.70;;;17.60;96.40;;;;;;5014131;28;20637;-73
2021/09/21 07:22:31;;;;;;;2.73;1.60;;;18.30;97.00;;;;;;5014400;28;20179;-73
2021/09/21 07:24:57;;;;;;;3.50;1.27;;;19.00;97.40;;;;;;5014732;28;20574;-73
2021/09/21 07:27:23;;;;;;;3.27;1.23;;;19.90;97.40;;;;;;5014703;28;20612;-74
2021/09/21 07:29:49;;;;;;;2.10;1.13;;;20.70;97.20;;;;;;5014085;28;20616;-74
2021/09/21 07:32:15;;;;;;;1.83;1.40;;;21.70;97.10;;;;;;5014523;28;20281;-74
2021/09/21 07:34:40;;;;;;;1.70;1.10;;;22.70;96.40;;;;;;5014635;28;20738;-73
2021/09/21 07:37:09;;;;;;;2.90;1.50;;;23.60;95.70;;;;;;5013142;28;20276;-73
2021/09/21 07:39:34;;;;;;;6.00;2.57;;;24.50;95.00;;;;;;5014220;28;20167;-73
2021/09/21 07:42:00;;;;;;;3.00;1.50;;;25.30;92.90;;;;;;5014350;28;20596;-74
2021/09/21 07:44:26;;;;;;;2.40;1.40;;;25.90;91.40;;;;;;5012903;28;20173;-74
2021/09/21 07:46:52;;;;;;;1.80;1.47;;;26.50;90.40;;;;;;5013144;28;20172;-74
2021/09/21 07:49:17;;;;;;;2.00;1.30;;;27.20;89.40;;;;;;5012800;28;20224;-74
2021/09/21 07:51:45;;;;;;;1.83;1.20;;;27.70;82.80;;;;;;5012977;28;20220;-74
2021/09/21 07:54:11;;;;;;;5.00;1.07;;;28.20;81.60;;;;;;5014161;28;20577;-74
2021/09/21 07:56:37;;;;;;;2.07;1.20;;;28.80;79.40;;;;;;5012928;28;20681;-74
2021/09/21 07:59:05;;;;;;;2.10;1.20;;;29.40;76.40;;;;;;5012247;28;20669;-74
2021/09/21 08:01:31;;;;;;;1.57;1.13;;;30.00;75.30;;;;;;5013265;28;21116;-74
2021/09/21 08:03:57;;;;;;;1.93;1.43;;;30.50;71.40;;;;;;5013187;28;20581;-74
2021/09/21 08:06:26;;;;;;;3.10;1.10;;;30.90;69.60;;;;;;5014795;28;20621;-74
2021/09/21 08:08:52;;;;;;;2.90;1.20;;;31.50;67.60;;;;;;5014049;28;20177;-74
2021/09/21 08:11:20;;;;;;;1.67;1.03;;;31.70;62.80;;;;;;5013855;28;20607;-74
2021/09/21 08:13:46;;;;;;;2.47;1.37;;;32.00;62.70;;;;;;4996695;28;20206;-75
2021/09/21 08:16:12;;;;;;;1.93;1.10;;;32.40;61.00;;;;;;5014352;28;20668;-74
2021/09/21 08:18:37;;;;;;;1.87;1.00;;;32.50;56.40;;;;;;5014740;28;20168;-74
2021/09/21 08:21:04;;;;;;;2.73;0.90;;;32.50;57.20;;;;;;5029330;28;20261;-74
2021/09/21 08:23:30;;;;;;;3.20;0.90;;;32.70;56.70;;;;;;5014398;28;20172;-74
2021/09/21 08:25:56;;;;;;;2.07;1.53;;;33.00;55.90;;;;;;5014270;28;20665;-74
2021/09/21 08:28:21;;;;;;;1.40;0.90;;;33.20;55.50;;;;;;5013623;28;20666;-74
2021/09/21 08:30:47;;;;;;;1.77;1.07;;;33.50;53.30;;;;;;5015006;28;20206;-74
2021/09/21 08:33:13;;;;;;;2.27;1.13;;;33.40;51.80;;;;;;5014523;28;20564;-75
2021/09/21 08:35:39;;;;;;;1.40;0.97;;;33.40;51.90;;;;;;5013458;28;20199;-74
2021/09/21 08:38:05;;;;;;;1.43;1.00;;;33.50;51.50;;;;;;5013043;28;20182;-75
2021/09/21 08:40:31;;;;;;;1.57;0.90;;;33.70;51.30;;;;;;5013379;28;20593;-75
2021/09/21 08:42:59;;;;;;;1.60;0.97;;;34.10;51.40;;;;;;5008874;28;20186;-75
2021/09/21 08:45:25;;;;;;;1.60;0.97;;;34.20;50.10;;;;;;4995431;28;20613;-75
2021/09/21 08:47:51;;;;;;;1.80;0.90;;;34.20;46.80;;;;;;5018701;28;20584;-74
2021/09/21 08:50:17;;;;;;;3.73;1.00;;;33.90;46.40;;;;;;4996474;28;20613;-74
2021/09/21 08:52:43;;;;;;;1.87;1.00;;;33.60;45.20;;;;;;5018351;28;21154;-74
2021/09/21 08:55:12;;;;;;;1.60;1.03;;;33.50;46.70;;;;;;5015714;28;20177;-74
2021/09/21 08:57:39;;;;;;;3.30;1.17;;;33.80;46.80;;;;;;4980003;28;20206;-75
2021/09/21 09:00:08;;;;;;;1.60;0.90;;;34.00;47.00;;;;;;5028644;28;20952;-74
2021/09/21 09:02:34;;;;;;;2.83;1.10;;;34.10;44.50;;;;;;5013441;28;20585;-74
2021/09/21 09:05:07;;;;;;;2.33;1.03;;;34.20;45.00;;;;;;5013000;28;20591;-74
2021/09/21 09:07:36;;;;;;;1.40;0.70;;;34.30;44.20;;;;;;5017365;28;20933;-74
2021/09/21 09:10:04;;;;;;;2.67;0.83;;;34.40;44.60;;;;;;5016196;28;20565;-74
2021/09/21 09:12:33;;;;;;;2.50;1.00;;;34.60;42.40;;;;;;5013419;28;20975;-74
2021/09/21 09:15:12;;;;;;;1.40;0.90;;;34.30;41.50;;;;;;5012490;28;21141;-74
2021/09/21 09:17:38;;;;;;;2.37;0.90;;;34.20;41.50;;;;;;4983642;28;20720;-74
2021/09/21 09:20:06;;;;;;;1.80;0.90;;;34.20;42.60;;;;;;5016125;28;20709;-74
2021/09/21 09:22:32;;;;;;;2.03;1.00;;;34.20;41.60;;;;;;5002926;28;20228;-75
2021/09/21 09:25:05;;;;;;;2.87;1.10;;;33.90;41.10;;;;;;5012604;28;20577;-75
2021/09/21 09:27:46;;;;;;;4.63;1.00;;;33.90;41.70;;;;;;5020772;28;20628;-75
2021/09/21 09:30:15;;;;;;;3.03;1.00;;;34.10;42.40;;;;;;5012168;28;20601;-75
2021/09/21 09:32:44;;;;;;;1.50;0.90;;;34.30;42.30;;;;;;5012359;28;20581;-73
2021/09/21 09:35:20;;;;;;;1.43;0.90;;;34.30;41.90;;;;;;5012292;28;20941;-72
2021/09/21 09:37:45;;;;;;;1.70;1.27;;;34.30;41.00;;;;;;5017721;28;21191;-72
2021/09/21 09:40:11;;;;;;;2.17;0.80;;;34.20;41.00;;;;;;5013648;28;20620;-73
2021/09/21 09:42:42;;;;;;;1.50;0.80;;;34.30;41.10;;;;;;5011618;28;20174;-73
2021/09/21 09:45:09;;;;;;;2.30;0.90;;;34.30;38.10;;;;;;4994397;28;20518;-73
2021/09/21 09:47:49;;;;;;;3.53;0.93;;;34.10;39.50;;;;;;5011939;28;20573;-73
2021/09/21 09:50:17;;;;;;;1.50;0.80;;;34.10;40.00;;;;;;5011367;28;20601;-73
2021/09/21 09:52:43;;;;;;;2.00;0.90;;;34.10;40.10;;;;;;5011738;28;20580;-73
2021/09/21 09:55:09;;;;;;;1.97;0.80;;;34.20;40.00;;;;;;5011825;28;20573;-74
2021/09/21 09:57:40;;;;;;;1.87;1.30;;;34.30;40.10;;;;;;5011653;28;20613;-73
2021/09/21 10:00:07;;;;;;;2.00;0.97;;;34.40;38.90;;;;;;5026744;28;20603;-73
2021/09/21 10:02:38;;;;;;;1.67;0.97;;;34.30;39.00;;;;;;5026924;28;20574;-73
2021/09/21 10:05:04;;;;;;;2.03;0.80;;;34.20;38.90;;;;;;5011953;28;20569;-73
2021/09/21 10:07:31;;;;;;;5.37;0.97;;;33.90;37.80;;;;;;5011574;28;20574;-73
2021/09/21 10:09:57;;;;;;;2.60;1.00;;;33.60;37.40;;;;;;5011564;28;20974;-73
2021/09/21 10:12:23;;;;;;;1.47;0.90;;;33.40;37.90;;;;;;5012281;28;20576;-73
2021/09/21 10:14:49;;;;;;;1.40;0.90;;;33.30;38.70;;;;;;4994406;28;20606;-73
2021/09/21 10:17:23;;;;;;;1.83;0.93;;;33.40;38.80;;;;;;4994175;28;20630;-73
2021/09/21 10:19:53;;;;;;;1.43;0.87;;;33.40;38.70;;;;;;5026634;28;20605;-73
2021/09/21 10:22:29;;;;;;;1.80;1.13;;;33.30;38.30;;;;;;5011627;28;20633;-74
2021/09/21 10:25:04;;;;;;;2.07;1.20;;;32.90;36.00;;;;;;5026960;28;20678;-74
2021/09/21 10:27:29;;;;;;;1.50;0.80;;;32.50;36.50;;;;;;5012265;28;20586;-74
2021/09/21 10:30:01;;;;;;;4.07;1.00;;;32.10;38.00;;;;;;4997388;28;20571;-73
2021/09/21 10:32:27;;;;;;;2.27;1.10;;;31.40;36.90;;;;;;5015689;28;20648;-73
2021/09/21 10:34:53;;;;;;;2.37;0.90;;;30.70;37.70;;;;;;5015233;28;20621;-74
2021/09/21 10:37:23;;;;;;;3.10;0.80;;;30.30;38.70;;;;;;5015188;28;20652;-74
2021/09/21 10:39:59;;;;;;;1.50;0.80;;;30.10;38.90;;;;;;5030381;28;20973;-74
2021/09/21 10:42:25;;;;;;;1.80;1.10;;;29.70;38.90;;;;;;5015735;28;20871;-74
2021/09/21 10:44:58;;;;;;;1.67;1.03;;;29.50;39.30;;;;;;4997649;28;20572;-74
2021/09/21 10:47:26;;;;;;;1.83;0.90;;;29.40;39.70;;;;;;4998122;28;21220;-73
2021/09/21 10:49:53;;;;;;;1.97;0.97;;;29.40;39.80;;;;;;5030955;28;20931;-73
2021/09/21 10:52:26;;;;;;;1.87;1.07;;;29.40;40.40;;;;;;5031678;28;21121;-73
2021/09/21 10:54:53;;;;;;;2.07;1.10;;;29.50;40.10;;;;;;5015837;28;20571;-73
2021/09/21 10:57:51;;;;;;;2.53;1.00;;;29.20;39.60;;;;;;4997725;28;20613;-73
2021/09/21 11:00:21;;;;;;;2.27;0.87;;;28.90;39.40;;;;;;5016542;28;20601;-74
2021/09/21 11:02:53;;;;;;;2.90;1.33;;;28.40;38.90;;;;;;4999613;28;20573;-74
2021/09/21 11:05:26;;;;;;;2.23;1.00;;;27.80;38.80;;;;;;5015286;28;20587;-73
2021/09/21 11:07:55;;;;;;;4.43;2.40;;;27.40;39.60;;;;;;5015030;28;20565;-74
2021/09/21 11:10:24;;;;;;;3.03;1.07;;;27.20;39.90;;;;;;5013526;28;20640;-73
2021/09/21 11:12:51;;;;;;;1.67;0.97;;;26.80;40.10;;;;;;4997448;28;20598;-73
2021/09/21 11:15:21;;;;;;;2.53;1.00;;;26.70;40.50;;;;;;4997388;28;20627;-73
2021/09/21 11:17:47;;;;;;;2.57;1.43;;;26.60;40.70;;;;;;5014568;28;20981;-74
2021/09/21 11:20:12;;;;;;;2.63;1.10;;;26.40;40.30;;;;;;4996878;28;20655;-74
2021/09/21 11:22:38;;;;;;;1.77;1.00;;;26.00;40.30;;;;;;5014704;28;21120;-74
2021/09/21 11:25:10;;;;;;;1.77;0.80;;;25.70;40.40;;;;;;5014762;28;20174;-74
2021/09/21 11:27:38;;;;;;;1.50;0.97;;;25.30;40.60;;;;;;5029998;28;20225;-74
2021/09/21 11:30:13;;;;;;;1.80;0.80;;;25.10;41.00;;;;;;4997325;28;20576;-74
2021/09/21 11:32:42;;;;;;;1.40;0.90;;;25.10;41.60;;;;;;5018484;28;21147;-74
2021/09/21 11:35:14;;;;;;;1.50;0.80;;;25.30;42.00;;;;;;4997397;28;20576;-74
2021/09/21 11:37:45;;;;;;;1.50;1.03;;;25.40;42.50;;;;;;5014840;28;20613;-74
2021/09/21 11:40:23;;;;;;;2.77;0.90;;;25.50;42.30;;;;;;4997201;28;20634;-74
2021/09/21 11:42:49;;;;;;;3.03;0.73;;;25.70;42.60;;;;;;5015188;28;20569;-74
2021/09/21 11:45:15;;;;;;;1.43;0.80;;;26.00;42.80;;;;;;4996948;28;20619;-75
2021/09/21 11:47:43;;;;;;;1.30;0.80;;;26.10;42.20;;;;;;4997156;28;20569;-75
2021/09/21 11:50:10;;;;;;;1.60;0.90;;;26.20;42.40;;;;;;5029868;28;20206;-74
2021/09/21 11:52:36;;;;;;;1.70;1.00;;;26.20;42.20;;;;;;5014491;28;20569;-74
2021/09/21 11:55:08;;;;;;;4.23;0.90;;;26.20;42.10;;;;;;4996925;28;20569;-74
2021/09/21 11:57:36;;;;;;;1.60;1.10;;;26.10;42.10;;;;;;5014059;28;21013;-74
2021/09/21 12:00:06;;;;;;;1.40;1.00;;;26.10;42.40;;;;;;5014460;28;20673;-75
2021/09/21 12:02:33;;;;;;;1.77;0.97;;;26.00;41.90;;;;;;5004768;28;20585;-75
2021/09/21 12:05:00;;;;;;;1.70;1.17;;;25.80;41.40;;;;;;5015106;28;20631;-74
2021/09/21 12:07:27;;;;;;;1.90;1.13;;;25.70;42.00;;;;;;4997438;28;20664;-74
2021/09/21 12:09:54;;;;;;;2.20;1.00;;;25.70;42.40;;;;;;5019346;28;20573;-73
2021/09/21 12:12:23;;;;;;;1.80;0.87;;;25.80;42.40;;;;;;5016527;28;20586;-73
2021/09/21 12:14:59;;;;;;;4.60;1.00;;;25.70;42.20;;;;;;5013574;28;20647;-74
2021/09/21 12:17:25;;;;;;;1.60;0.90;;;25.70;42.10;;;;;;5013265;28;20656;-74
2021/09/21 12:20:01;;;;;;;1.80;0.90;;;25.60;42.00;;;;;;5013125;28;20979;-73
2021/09/21 12:22:27;;;;;;;1.43;0.80;;;25.40;42.10;;;;;;5012180;28;20578;-74
2021/09/21 12:25:04;;;;;;;5.27;1.00;;;25.40;42.30;;;;;;5013557;28;20696;-73
2021/09/21 12:27:30;;;;;;;2.77;0.97;;;25.30;42.50;;;;;;5013423;28;20660;-74
2021/09/21 12:29:58;;;;;;;7.43;1.10;;;25.30;42.70;;;;;;5013078;28;21033;-74
2021/09/21 12:32:25;;;;;;;1.50;0.97;;;25.10;43.00;;;;;;5013189;28;20185;-75
2021/09/21 12:35:03;;;;;;;3.10;0.87;;;25.10;42.80;;;;;;5013378;28;21171;-75
2021/09/21 12:37:39;;;;;;;1.60;0.90;;;25.00;42.90;;;;;;5013161;28;20616;-76
2021/09/21 12:40:11;;;;;;;1.60;0.80;;;24.80;42.90;;;;;;5012726;28;20569;-75
2021/09/21 12:42:39;;;;;;;1.73;0.97;;;24.70;42.80;;;;;;4979418;28;20572;-75
2021/09/21 12:45:07;;;;;;;1.50;0.90;;;24.60;43.00;;;;;;5013165;28;20570;-75
2021/09/21 12:47:35;;;;;;;3.40;1.10;;;24.50;43.10;;;;;;5011712;28;20573;-75
2021/09/21 12:50:04;;;;;;;1.67;0.90;;;24.50;43.50;;;;;;4994358;28;20580;-75
2021/09/21 12:52:30;;;;;;;1.67;0.90;;;24.40;43.30;;;;;;5012852;28;21198;-75
2021/09/21 12:54:57;;;;;;;1.83;0.90;;;24.30;43.10;;;;;;5013056;28;20561;-75
2021/09/21 12:57:24;;;;;;;1.50;1.00;;;24.30;43.20;;;;;;4979158;28;20624;-75
2021/09/21 12:59:54;;;;;;;2.27;1.43;;;24.20;43.60;;;;;;4994771;28;20578;-75